createdAt,value
2024-04-22T00:00:03.808Z,101893.94
2024-04-22T00:00:30.233Z,101893.03
2024-04-22T00:00:51.994Z,101895.69
2024-04-22T00:01:13.838Z,101893.97
2024-04-22T00:02:20.988Z,101888.69
2024-04-22T00:02:42.850Z,101888.69
2024-04-22T00:03:05.003Z,101889.56
2024-04-22T00:03:26.823Z,101894.88
2024-04-22T00:03:48.672Z,101888.69
2024-04-22T00:04:10.590Z,101885.19
2024-04-22T00:04:32.457Z,101884.31
2024-04-22T00:04:54.304Z,101884.31
2024-04-22T00:05:16.214Z,101894.91
2024-04-22T00:05:38.094Z,101879.06
2024-04-22T00:05:59.948Z,101889.63
2024-04-22T00:06:24.370Z,101888.75
2024-04-22T00:06:47.078Z,101884.34
2024-04-22T00:07:08.877Z,101890.50
2024-04-22T00:07:31.692Z,101890.53
2024-04-22T00:07:53.551Z,101892.28
2024-04-22T00:08:15.291Z,101890.53
2024-04-22T00:08:37.032Z,101894.06
2024-04-22T00:09:01.404Z,101887.88
2024-04-22T00:09:23.203Z,101889.66
2024-04-22T00:09:46.973Z,101885.22
2024-04-22T00:10:08.893Z,101862.34
2024-04-22T00:10:33.322Z,101890.50
2024-04-22T00:11:04.405Z,101886.97
2024-04-22T00:11:27.451Z,101885.22
2024-04-22T00:11:49.198Z,101887.84
2024-04-22T00:12:10.968Z,101886.97
2024-04-22T00:12:32.757Z,101892.28
2024-04-22T00:12:54.565Z,101884.31
2024-04-22T00:13:16.374Z,101883.47
2024-04-22T00:13:40.902Z,101885.22
2024-04-22T00:14:03.036Z,101872.03
2024-04-22T00:14:24.865Z,101891.41
2024-04-22T00:14:46.736Z,101886.13
2024-04-22T00:15:08.711Z,101880.00
2024-04-22T00:15:30.453Z,101886.13
2024-04-22T00:15:52.231Z,101891.44
2024-04-22T00:16:14.099Z,101887.03
2024-04-22T00:16:36.257Z,101886.13
2024-04-22T00:16:58.593Z,101875.56
2024-04-22T00:17:20.516Z,101889.69
2024-04-22T00:17:42.491Z,101879.09
2024-04-22T00:18:07.690Z,101886.16
2024-04-22T00:18:29.758Z,101880.00
2024-04-22T00:18:51.787Z,101884.41
2024-04-22T00:19:13.690Z,101875.63
2024-04-22T00:19:35.525Z,101880.84
2024-04-22T00:19:59.020Z,101879.09
2024-04-22T00:20:20.838Z,101868.53
2024-04-22T00:20:42.585Z,101878.22
2024-04-22T00:21:07.291Z,101879.09
2024-04-22T00:21:30.058Z,101883.50
2024-04-22T00:21:51.794Z,101885.28
2024-04-22T00:22:13.756Z,101869.41
2024-04-22T00:22:35.664Z,101882.63
2024-04-22T00:22:57.507Z,101882.63
2024-04-22T00:23:19.355Z,101882.63
2024-04-22T00:23:41.199Z,101880.00
2024-04-22T00:24:07.352Z,101872.06
2024-04-22T00:25:02.869Z,101872.94
2024-04-22T00:25:24.682Z,101879.97
2024-04-22T00:25:49.154Z,101876.44
2024-04-22T00:26:10.968Z,101883.50
2024-04-22T00:26:33.000Z,101878.22
2024-04-22T00:26:54.770Z,101868.50
2024-04-22T00:27:16.497Z,101869.41
2024-04-22T00:27:38.275Z,101874.69
2024-04-22T00:28:00.030Z,101867.63
2024-04-22T00:28:21.858Z,101875.56
2024-04-22T00:28:43.731Z,101873.78
2024-04-22T00:29:05.722Z,101875.56
2024-04-22T00:29:30.134Z,101874.66
2024-04-22T00:29:51.923Z,101871.13
2024-04-22T00:30:13.695Z,101880.00
2024-04-22T00:30:35.485Z,101877.34
2024-04-22T00:30:57.240Z,101870.28
2024-04-22T00:31:19.050Z,101869.41
2024-04-22T00:31:40.938Z,101864.13
2024-04-22T00:32:02.891Z,101867.63
2024-04-22T00:32:24.738Z,101875.56
2024-04-22T00:32:46.708Z,101862.34
2024-04-22T00:33:10.430Z,101875.56
2024-04-22T00:33:35.022Z,101873.81
2024-04-22T00:33:56.836Z,101872.94
2024-04-22T00:34:18.688Z,101873.81
2024-04-22T00:34:40.609Z,101872.03
2024-04-22T00:35:02.431Z,101871.16
2024-04-22T00:35:24.212Z,101867.63
2024-04-22T00:35:55.539Z,101859.72
2024-04-22T00:36:17.299Z,101864.13
2024-04-22T00:36:39.508Z,101870.28
2024-04-22T00:37:01.312Z,101871.19
2024-04-22T00:37:23.119Z,101869.41
2024-04-22T00:37:44.947Z,101877.34
2024-04-22T00:38:09.557Z,101878.25
2024-04-22T00:38:31.562Z,101870.28
2024-04-22T00:38:53.317Z,101880.00
2024-04-22T00:39:17.887Z,101874.72
2024-04-22T00:39:39.677Z,101876.47
2024-04-22T00:40:01.421Z,101870.28
2024-04-22T00:40:23.231Z,101872.09
2024-04-22T00:40:45.078Z,101870.31
2024-04-22T00:41:06.831Z,101871.22
2024-04-22T00:41:31.693Z,101874.72
2024-04-22T00:41:56.372Z,101870.28
2024-04-22T00:42:18.128Z,101872.94
2024-04-22T00:42:44.671Z,101871.19
2024-04-22T00:43:06.498Z,101866.78
2024-04-22T00:43:28.362Z,101866.78
2024-04-22T00:43:50.166Z,101870.38
2024-04-22T00:44:12.344Z,101867.72
2024-04-22T00:44:34.349Z,101866.81
2024-04-22T00:44:56.221Z,101870.38
2024-04-22T00:45:20.798Z,101853.63
2024-04-22T00:45:43.393Z,101870.38
2024-04-22T00:46:05.811Z,101871.25
2024-04-22T00:46:27.898Z,101869.44
2024-04-22T00:46:49.854Z,101873.00
2024-04-22T00:47:11.695Z,101870.38
2024-04-22T00:47:33.636Z,101866.84
2024-04-22T00:47:55.522Z,101857.13
2024-04-22T00:48:20.728Z,101866.84
2024-04-22T00:48:45.152Z,101868.59
2024-04-22T00:49:07.154Z,101869.47
2024-04-22T00:49:29.004Z,101865.94
2024-04-22T00:49:52.076Z,101864.16
2024-04-22T00:50:15.268Z,101866.84
2024-04-22T00:50:37.444Z,101872.09
2024-04-22T00:51:00.569Z,101865.03
2024-04-22T00:51:23.705Z,101871.22
2024-04-22T00:51:45.601Z,101863.28
2024-04-22T00:52:10.103Z,101867.66
2024-04-22T00:52:32.469Z,101874.72
2024-04-22T00:52:54.988Z,101858.00
2024-04-22T00:53:18.355Z,101868.56
2024-04-22T00:53:40.704Z,101864.16
2024-04-22T00:54:02.736Z,101873.84
2024-04-22T00:54:27.309Z,101873.84
2024-04-22T00:54:49.299Z,101865.06
2024-04-22T00:55:11.300Z,101870.31
2024-04-22T00:55:33.930Z,101861.50
2024-04-22T00:55:56.415Z,101872.06
2024-04-22T00:56:21.656Z,101865.00
2024-04-22T00:56:44.134Z,101862.38
2024-04-22T00:57:06.053Z,101864.13
2024-04-22T00:57:27.899Z,101866.78
2024-04-22T00:57:51.077Z,101855.34
2024-04-22T00:58:14.334Z,101872.06
2024-04-22T00:58:38.769Z,101865.00
2024-04-22T00:59:01.148Z,101869.41
2024-04-22T00:59:25.950Z,101858.84
2024-04-22T00:59:47.881Z,101861.50
2024-04-22T01:00:10.339Z,101864.16
2024-04-22T01:00:32.195Z,101866.78
2024-04-22T01:00:56.991Z,101864.16
2024-04-22T01:01:19.504Z,101864.16
2024-04-22T01:01:43.022Z,101872.09
2024-04-22T01:02:07.757Z,101870.34
2024-04-22T01:02:29.698Z,101873.88
2024-04-22T01:02:53.928Z,101857.13
2024-04-22T01:03:16.747Z,101870.34
2024-04-22T01:03:38.870Z,101865.06
2024-04-22T01:04:00.986Z,101868.56
2024-04-22T01:04:25.517Z,101863.28
2024-04-22T01:04:48.168Z,101869.47
2024-04-22T01:05:10.126Z,101867.69
2024-04-22T01:05:31.950Z,101867.69
2024-04-22T01:05:54.329Z,101863.28
2024-04-22T01:06:16.192Z,101865.06
2024-04-22T01:06:38.017Z,101872.13
2024-04-22T01:07:00.508Z,101869.44
2024-04-22T01:07:23.003Z,101858.00
2024-04-22T01:07:45.643Z,101855.34
2024-04-22T01:08:07.780Z,101860.63
2024-04-22T01:08:29.619Z,101853.56
2024-04-22T01:08:54.050Z,101863.25
2024-04-22T01:09:15.861Z,101865.91
2024-04-22T01:09:40.501Z,101862.38
2024-04-22T01:10:03.502Z,101865.91
2024-04-22T01:10:28.050Z,101861.50
2024-04-22T01:10:49.952Z,101858.88
2024-04-22T01:11:12.015Z,101852.72
2024-04-22T01:11:34.087Z,101861.53
2024-04-22T01:11:58.556Z,101866.84
2024-04-22T01:12:21.217Z,101856.22
2024-04-22T01:12:43.056Z,101854.47
2024-04-22T01:13:05.258Z,101855.34
2024-04-22T01:13:27.088Z,101854.50
2024-04-22T01:13:49.792Z,101862.41
2024-04-22T01:14:11.627Z,101857.97
2024-04-22T01:14:33.691Z,101857.97
2024-04-22T01:14:55.444Z,101851.84
2024-04-22T01:15:19.878Z,101857.13
2024-04-22T01:15:41.665Z,101860.66
2024-04-22T01:16:03.622Z,101850.97
2024-04-22T01:16:25.491Z,101850.97
2024-04-22T01:16:53.640Z,101851.84
2024-04-22T01:17:15.444Z,101860.66
2024-04-22T01:17:38.661Z,101845.69
2024-04-22T01:18:00.721Z,101846.56
2024-04-22T01:18:22.662Z,101858.91
2024-04-22T01:18:45.355Z,101861.56
2024-04-22T01:19:07.157Z,101846.59
2024-04-22T01:19:29.100Z,101854.50
2024-04-22T01:19:53.477Z,101862.47
2024-04-22T01:20:15.458Z,101843.97
2024-04-22T01:20:37.670Z,101843.94
2024-04-22T01:20:59.406Z,101831.63
2024-04-22T01:21:26.223Z,101847.47
2024-04-22T01:21:48.000Z,101847.47
2024-04-22T01:22:09.863Z,101838.66
2024-04-22T01:22:31.982Z,101836.00
2024-04-22T01:22:53.724Z,101847.50
2024-04-22T01:23:19.160Z,101846.56
2024-04-22T01:23:44.576Z,101847.47
2024-04-22T01:24:06.525Z,101845.72
2024-04-22T01:24:28.278Z,101843.97
2024-04-22T01:24:50.071Z,101847.50
2024-04-22T01:25:11.918Z,101841.31
2024-04-22T01:25:36.369Z,101841.31
2024-04-22T01:26:03.909Z,101847.47
2024-04-22T01:26:26.487Z,101840.41
2024-04-22T01:26:50.096Z,101840.41
2024-04-22T01:37:19.936Z,101831.59
2024-04-22T01:37:42.978Z,101833.34
2024-04-22T01:38:05.068Z,101832.47
2024-04-22T01:38:26.872Z,101836.88
2024-04-22T01:38:49.672Z,101839.53
2024-04-22T01:39:12.050Z,101843.94
2024-04-22T01:39:36.444Z,101841.28
2024-04-22T01:39:58.306Z,101830.72
2024-04-22T01:40:20.358Z,101838.66
2024-04-22T01:40:42.289Z,101834.22
2024-04-22T01:41:04.543Z,101839.53
2024-04-22T01:41:26.329Z,101837.75
2024-04-22T01:41:48.119Z,101837.75
2024-04-22T01:42:09.865Z,101835.13
2024-04-22T01:42:34.272Z,101828.06
2024-04-22T01:42:56.060Z,101829.84
2024-04-22T01:43:17.890Z,101836.03
2024-04-22T01:43:39.935Z,101837.78
2024-04-22T01:44:01.831Z,101836.91
2024-04-22T01:44:23.915Z,101833.38
2024-04-22T01:44:45.802Z,101831.59
2024-04-22T01:45:07.978Z,101838.66
2024-04-22T01:45:29.732Z,101834.22
2024-04-22T01:45:51.620Z,101832.50
2024-04-22T01:46:13.472Z,101837.78
2024-04-22T01:46:37.912Z,101837.78
2024-04-22T01:47:00.422Z,101840.44
2024-04-22T01:47:22.314Z,101842.19
2024-04-22T01:47:44.129Z,101836.91
2024-04-22T01:48:06.745Z,101833.38
2024-04-22T01:48:28.727Z,101828.09
2024-04-22T01:48:50.524Z,101831.63
2024-04-22T01:49:12.717Z,101840.41
2024-04-22T01:49:34.708Z,101822.78
2024-04-22T01:49:56.501Z,101840.41
2024-04-22T01:50:21.183Z,101842.19
2024-04-22T01:50:43.032Z,101837.78
2024-04-22T01:51:05.285Z,101841.28
2024-04-22T01:51:27.094Z,101840.41
2024-04-22T01:51:51.512Z,101843.97
2024-04-22T01:52:14.980Z,101821.94
2024-04-22T01:52:36.833Z,101839.53
2024-04-22T01:52:58.610Z,101840.41
2024-04-22T01:53:22.954Z,101848.38
2024-04-22T01:53:44.733Z,101840.44
2024-04-22T01:54:06.569Z,101842.19
2024-04-22T01:54:28.472Z,101838.66
2024-04-22T01:54:50.232Z,101843.06
2024-04-22T01:55:12.085Z,101838.66
2024-04-22T01:55:33.914Z,101843.94
2024-04-22T01:55:57.387Z,101836.03
2024-04-22T01:56:19.165Z,101841.31
2024-04-22T01:56:40.979Z,101839.53
2024-04-22T01:57:02.827Z,101842.19
2024-04-22T01:57:24.753Z,101839.53
2024-04-22T01:57:49.126Z,101837.81
2024-04-22T01:58:10.924Z,101837.78
2024-04-22T01:58:32.837Z,101835.16
2024-04-22T01:58:55.091Z,101849.28
2024-04-22T01:59:16.914Z,101834.28
2024-04-22T01:59:39.061Z,101843.09
2024-04-22T02:00:00.801Z,101844.84
2024-04-22T02:00:22.632Z,101842.22
2024-04-22T02:00:44.464Z,101833.41
2024-04-22T02:01:09.332Z,101838.69
2024-04-22T02:01:31.229Z,101838.69
2024-04-22T02:01:53.179Z,101835.16
2024-04-22T02:02:15.005Z,101838.69
2024-04-22T02:02:36.815Z,101832.50
2024-04-22T02:02:58.680Z,101835.16
2024-04-22T02:03:20.515Z,101838.66
2024-04-22T02:03:42.305Z,101835.13
2024-04-22T02:04:04.458Z,101835.13
2024-04-22T02:04:26.555Z,101837.78
2024-04-22T02:04:48.323Z,101836.03
2024-04-22T02:05:10.082Z,101831.63
2024-04-22T02:05:34.516Z,101841.28
2024-04-22T02:05:56.320Z,101839.53
2024-04-22T02:06:18.106Z,101843.06
2024-04-22T02:06:39.941Z,101837.78
2024-04-22T02:07:04.565Z,101835.13
2024-04-22T02:07:28.642Z,101834.25
2024-04-22T02:07:50.657Z,101836.00
2024-04-22T02:08:12.422Z,101833.38
2024-04-22T02:08:34.243Z,101835.09
2024-04-22T02:08:56.015Z,101824.53
2024-04-22T02:09:20.413Z,101834.25
2024-04-22T02:09:42.200Z,101841.28
2024-04-22T02:10:12.968Z,101840.38
2024-04-22T02:10:43.652Z,101839.50
2024-04-22T02:11:05.561Z,101841.28
2024-04-22T02:11:27.544Z,101843.03
2024-04-22T02:11:51.201Z,101844.78
2024-04-22T02:12:12.990Z,101840.38
2024-04-22T02:12:34.869Z,101840.38
2024-04-22T02:12:59.272Z,101834.25
2024-04-22T02:13:21.307Z,101837.72
2024-04-22T02:13:43.142Z,101835.06
2024-04-22T02:14:05.048Z,101844.78
2024-04-22T02:14:28.648Z,101843.91
2024-04-22T02:14:50.438Z,101841.25
2024-04-22T02:15:12.194Z,101839.47
2024-04-22T02:15:34.212Z,101842.09
2024-04-22T02:15:56.009Z,101837.72
2024-04-22T02:16:20.409Z,101841.22
2024-04-22T02:16:42.308Z,101838.59
2024-04-22T02:17:04.628Z,101842.09
2024-04-22T02:17:27.402Z,101836.81
2024-04-22T02:17:49.369Z,101844.75
2024-04-22T02:18:11.201Z,101839.50
2024-04-22T02:18:33.548Z,101837.72
2024-04-22T02:18:55.946Z,101832.44
2024-04-22T02:19:17.834Z,101837.69
2024-04-22T02:19:42.606Z,101834.19
2024-04-22T02:20:05.951Z,101845.63
2024-04-22T02:20:27.700Z,101836.81
2024-04-22T02:20:49.480Z,101848.28
2024-04-22T02:21:11.315Z,101836.81
2024-04-22T02:21:33.088Z,101834.19
2024-04-22T02:21:54.839Z,101829.75
2024-04-22T02:22:19.286Z,101840.38
2024-04-22T02:22:41.128Z,101835.97
2024-04-22T02:23:05.728Z,101841.25
2024-04-22T02:23:27.541Z,101837.72
2024-04-22T02:23:49.400Z,101833.31
2024-04-22T02:24:11.241Z,101836.81
2024-04-22T02:24:33.053Z,101832.41
2024-04-22T02:24:54.826Z,101836.84
2024-04-22T02:25:16.724Z,101832.47
2024-04-22T02:25:38.568Z,101834.19
2024-04-22T02:26:00.435Z,101837.75
2024-04-22T02:26:22.405Z,101835.97
2024-04-22T02:26:44.172Z,101831.53
2024-04-22T02:27:06.013Z,101828.03
2024-04-22T02:27:27.764Z,101832.41
2024-04-22T02:27:52.193Z,101836.81
2024-04-22T02:28:14.174Z,101833.28
2024-04-22T02:28:35.964Z,101829.75
2024-04-22T02:28:57.725Z,101812.19
2024-04-22T02:29:19.531Z,101824.50
2024-04-22T02:29:41.326Z,101830.66
2024-04-22T02:30:03.354Z,101828.91
2024-04-22T02:30:25.084Z,101833.31
2024-04-22T02:30:46.884Z,101821.84
2024-04-22T02:31:11.241Z,101833.31
2024-04-22T02:31:33.111Z,101820.06
2024-04-22T02:31:54.875Z,101830.66
2024-04-22T02:32:21.106Z,101825.38
2024-04-22T02:32:42.903Z,101832.44
2024-04-22T02:33:08.782Z,101828.91
2024-04-22T02:33:30.835Z,101826.28
2024-04-22T02:33:52.673Z,101829.78
2024-04-22T02:34:18.490Z,101826.28
2024-04-22T02:34:40.329Z,101828.03
2024-04-22T02:35:02.102Z,101834.22
2024-04-22T02:35:23.878Z,101821.00
2024-04-22T02:35:45.696Z,101828.94
2024-04-22T02:36:07.953Z,101825.38
2024-04-22T02:36:29.770Z,101824.50
2024-04-22T02:36:51.958Z,101816.56
2024-04-22T02:37:13.807Z,101827.16
2024-04-22T02:37:38.288Z,101819.22
2024-04-22T02:38:02.811Z,101824.50
2024-04-22T02:38:24.603Z,101828.03
2024-04-22T02:38:46.415Z,101825.41
2024-04-22T02:39:08.179Z,101829.81
2024-04-22T02:39:30.013Z,101825.41
2024-04-22T02:39:51.804Z,101828.03
2024-04-22T02:40:13.700Z,101826.25
2024-04-22T02:40:35.812Z,101828.88
2024-04-22T02:40:57.666Z,101830.66
2024-04-22T02:41:19.403Z,101831.53
2024-04-22T02:41:41.136Z,101828.88
2024-04-22T02:42:02.914Z,101826.25
2024-04-22T02:42:27.314Z,101834.16
2024-04-22T02:42:49.063Z,101834.16
2024-04-22T02:43:10.918Z,101837.69
2024-04-22T02:43:32.809Z,101835.94
2024-04-22T02:43:54.664Z,101833.28
2024-04-22T02:44:16.427Z,101837.72
2024-04-22T02:44:38.172Z,101827.13
2024-04-22T02:44:59.927Z,101831.53
2024-04-22T02:45:22.216Z,101829.75
2024-04-22T02:45:46.877Z,101830.66
2024-04-22T02:46:08.660Z,101836.81
2024-04-22T02:46:30.528Z,101830.66
2024-04-22T02:46:52.399Z,101840.38
2024-04-22T02:47:14.283Z,101841.25
2024-04-22T02:47:36.069Z,101831.53
2024-04-22T02:47:57.911Z,101833.28
2024-04-22T02:48:19.762Z,101835.06
2024-04-22T02:48:44.146Z,101835.94
2024-04-22T02:49:05.891Z,101841.22
2024-04-22T02:49:30.240Z,101837.69
2024-04-22T02:49:52.023Z,101832.38
2024-04-22T02:50:14.689Z,101833.28
2024-04-22T02:50:36.475Z,101837.72
2024-04-22T02:51:02.030Z,101829.75
2024-04-22T02:51:23.796Z,101831.53
2024-04-22T02:51:45.555Z,101835.94
2024-04-22T02:52:07.361Z,101839.47
2024-04-22T02:52:31.785Z,101835.06
2024-04-22T02:52:56.166Z,101829.78
2024-04-22T02:53:17.976Z,101836.81
2024-04-22T03:00:38.535Z,101816.63
2024-04-22T03:01:00.476Z,101819.28
2024-04-22T03:01:22.312Z,101825.44
2024-04-22T03:01:44.162Z,101806.97
2024-04-22T03:02:05.943Z,101821.94
2024-04-22T03:02:27.797Z,101825.47
2024-04-22T03:02:49.646Z,101833.38
2024-04-22T03:03:14.056Z,101821.03
2024-04-22T03:03:35.975Z,101827.19
2024-04-22T03:03:57.843Z,101823.69
2024-04-22T03:04:19.758Z,101832.50
2024-04-22T03:04:41.583Z,101826.31
2024-04-22T03:05:03.415Z,101829.81
2024-04-22T03:05:25.234Z,101824.53
2024-04-22T03:05:47.132Z,101824.50
2024-04-22T03:06:11.560Z,101823.66
2024-04-22T03:06:33.341Z,101830.69
2024-04-22T03:06:55.123Z,101829.81
2024-04-22T03:07:16.908Z,101837.75
2024-04-22T03:07:38.722Z,101829.78
2024-04-22T03:08:03.364Z,101820.97
2024-04-22T03:08:25.176Z,101843.91
2024-04-22T03:08:46.964Z,101841.25
2024-04-22T03:09:08.735Z,101834.19
2024-04-22T03:09:34.582Z,101839.50
2024-04-22T03:09:58.926Z,101843.88
2024-04-22T03:10:20.682Z,101828.03
2024-04-22T03:10:42.486Z,101825.34
2024-04-22T03:11:04.764Z,101820.09
2024-04-22T03:11:26.611Z,101830.66
2024-04-22T03:11:48.477Z,101828.03
2024-04-22T03:12:10.797Z,101831.56
2024-04-22T03:12:34.092Z,101829.78
2024-04-22T03:12:58.445Z,101834.16
2024-04-22T03:13:20.234Z,101826.25
2024-04-22T03:13:42.125Z,101821.84
2024-04-22T03:14:03.920Z,101828.00
2024-04-22T03:14:25.710Z,101828.03
2024-04-22T03:14:47.468Z,101837.72
2024-04-22T03:15:09.280Z,101828.91
2024-04-22T03:15:31.026Z,101826.28
2024-04-22T03:15:52.837Z,101835.97
2024-04-22T03:16:17.343Z,101830.66
2024-04-22T03:16:39.296Z,101828.91
2024-04-22T03:17:01.152Z,101818.31
2024-04-22T03:17:23.016Z,101828.00
2024-04-22T03:17:44.840Z,101830.66
2024-04-22T03:18:07.303Z,101816.53
2024-04-22T03:18:29.154Z,101827.09
2024-04-22T03:18:51.038Z,101820.06
2024-04-22T03:19:12.893Z,101815.66
2024-04-22T03:19:34.710Z,101829.75
2024-04-22T03:19:56.578Z,101823.59
2024-04-22T03:20:23.391Z,101828.88
2024-04-22T03:20:46.276Z,101827.13
2024-04-22T03:21:08.049Z,101820.06
2024-04-22T03:21:29.891Z,101820.06
2024-04-22T03:21:51.679Z,101813.88
2024-04-22T03:22:13.511Z,101823.59
2024-04-22T03:22:36.576Z,101820.06
2024-04-22T03:22:58.423Z,101824.44
2024-04-22T03:23:22.784Z,101818.31
2024-04-22T03:23:47.150Z,101828.84
2024-04-22T03:24:08.975Z,101821.81
2024-04-22T03:24:30.709Z,101828.88
2024-04-22T03:24:52.508Z,101825.34
2024-04-22T03:25:14.345Z,101825.31
2024-04-22T03:25:36.165Z,101822.69
2024-04-22T03:25:57.928Z,101830.63
2024-04-22T03:26:19.718Z,101830.63
2024-04-22T03:26:41.469Z,101828.84
2024-04-22T03:27:03.484Z,101820.91
2024-04-22T03:27:27.849Z,101819.13
2024-04-22T03:27:49.600Z,101826.22
2024-04-22T03:28:11.442Z,101820.03
2024-04-22T03:28:36.559Z,101818.28
2024-04-22T03:28:58.379Z,101820.03
2024-04-22T03:29:20.178Z,101812.97
2024-04-22T03:29:41.938Z,101809.44
2024-04-22T03:30:04.480Z,101819.16
2024-04-22T03:30:26.270Z,101815.66
2024-04-22T03:30:48.079Z,101817.41
2024-04-22T03:31:12.496Z,101813.00
2024-04-22T03:31:34.465Z,101811.28
2024-04-22T03:31:56.419Z,101811.25
2024-04-22T03:32:18.307Z,101813.03
2024-04-22T03:32:40.214Z,101807.72
2024-04-22T03:33:02.029Z,101806.84
2024-04-22T03:33:23.820Z,101807.72
2024-04-22T03:33:45.618Z,101817.44
2024-04-22T03:34:07.403Z,101821.81
2024-04-22T03:34:29.347Z,101807.72
2024-04-22T03:34:51.126Z,101818.28
2024-04-22T03:35:12.914Z,101811.25
2024-04-22T03:35:37.529Z,101818.28
2024-04-22T03:36:01.304Z,101811.25
2024-04-22T03:36:23.300Z,101812.13
2024-04-22T03:36:47.632Z,101798.91
2024-04-22T03:37:09.446Z,101801.50
2024-04-22T03:37:31.544Z,101805.94
2024-04-22T03:37:54.348Z,101804.13
2024-04-22T03:38:16.563Z,101800.59
2024-04-22T03:38:43.618Z,101806.75
2024-04-22T03:39:05.484Z,101802.34
2024-04-22T03:39:27.244Z,101802.34
2024-04-22T03:39:48.984Z,101803.25
2024-04-22T03:40:10.916Z,101806.75
2024-04-22T03:40:35.393Z,101814.69
2024-04-22T03:40:57.156Z,101812.03
2024-04-22T03:41:19.000Z,101819.97
2024-04-22T03:41:40.776Z,101810.28
2024-04-22T03:42:02.808Z,101812.94
2024-04-22T03:42:24.652Z,101798.81
2024-04-22T03:42:46.506Z,101816.47
2024-04-22T03:43:13.839Z,101804.09
2024-04-22T03:43:35.617Z,101805.88
2024-04-22T03:43:57.449Z,101805.88
2024-04-22T03:44:19.220Z,101810.25
2024-04-22T03:44:40.972Z,101815.53
2024-04-22T03:45:02.812Z,101813.78
2024-04-22T03:45:24.597Z,101807.59
2024-04-22T03:46:06.483Z,101810.25
2024-04-22T03:46:47.086Z,101810.25
2024-04-22T03:47:27.525Z,101810.25
2024-04-22T03:48:07.948Z,101802.34
2024-04-22T03:48:48.174Z,101809.41
2024-04-22T03:49:36.843Z,101810.28
2024-04-22T03:50:02.899Z,101803.25
2024-04-22T03:50:24.716Z,101812.94
2024-04-22T03:50:46.473Z,101800.59
2024-04-22T03:51:08.239Z,101791.78
2024-04-22T03:51:29.978Z,101802.38
2024-04-22T03:51:51.742Z,101799.72
2024-04-22T03:52:13.584Z,101787.41
2024-04-22T03:52:38.069Z,101805.91
2024-04-22T03:53:01.325Z,101798.84
2024-04-22T03:53:23.106Z,101797.97
2024-04-22T03:53:47.496Z,101781.31
2024-04-22T03:54:09.262Z,101798.00
2024-04-22T03:54:31.220Z,101790.94
2024-04-22T03:54:52.973Z,101793.59
2024-04-22T03:55:17.542Z,101787.41
2024-04-22T03:55:39.604Z,101790.03
2024-04-22T03:56:01.436Z,101793.56
2024-04-22T03:56:23.180Z,101786.50
2024-04-22T03:56:44.936Z,101800.63
2024-04-22T03:57:06.717Z,101793.56
2024-04-22T03:57:31.098Z,101797.16
2024-04-22T03:57:52.848Z,101788.31
2024-04-22T03:58:14.679Z,101788.31
2024-04-22T03:58:36.496Z,101789.22
2024-04-22T03:58:58.336Z,101798.03
2024-04-22T03:59:20.093Z,101790.09
2024-04-22T03:59:42.773Z,101789.19
2024-04-22T04:00:07.828Z,101790.94
2024-04-22T04:00:33.793Z,101787.41
2024-04-22T04:00:55.737Z,101790.09
2024-04-22T04:01:17.624Z,101796.25
2024-04-22T04:01:39.506Z,101793.59
2024-04-22T04:02:01.279Z,101788.31
2024-04-22T04:02:23.065Z,101795.38
2024-04-22T04:02:44.795Z,101792.72
2024-04-22T04:03:06.611Z,101788.31
2024-04-22T04:03:31.138Z,101792.72
2024-04-22T04:03:53.030Z,101790.06
2024-04-22T04:04:15.064Z,101797.13
2024-04-22T04:04:37.343Z,101790.06
2024-04-22T04:04:59.344Z,101790.94
2024-04-22T04:05:23.033Z,101789.19
2024-04-22T04:05:45.263Z,101795.34
2024-04-22T04:06:07.272Z,101789.19
2024-04-22T04:06:29.020Z,101796.25
2024-04-22T04:06:50.786Z,101780.38
2024-04-22T04:07:15.166Z,101793.59
2024-04-22T04:07:36.990Z,101794.47
2024-04-22T04:07:58.791Z,101790.06
2024-04-22T04:08:20.568Z,101787.44
2024-04-22T04:08:42.450Z,101793.59
2024-04-22T04:09:07.026Z,101793.63
2024-04-22T04:09:28.792Z,101796.28
2024-04-22T04:09:50.600Z,101793.63
2024-04-22T04:10:12.487Z,101784.81
2024-04-22T04:10:34.352Z,101798.06
2024-04-22T04:11:02.199Z,101776.03
2024-04-22T04:11:27.613Z,101791.88
2024-04-22T04:11:49.837Z,101791.88
2024-04-22T04:12:11.645Z,101801.59
2024-04-22T04:12:33.439Z,101794.53
2024-04-22T04:12:55.213Z,101793.66
2024-04-22T04:13:17.014Z,101792.78
2024-04-22T04:13:40.384Z,101787.47
2024-04-22T04:14:02.309Z,101796.25
2024-04-22T04:14:26.692Z,101796.25
2024-04-22T04:14:48.496Z,101790.13
2024-04-22T04:15:11.295Z,101787.50
2024-04-22T04:15:34.243Z,101797.16
2024-04-22T04:15:56.060Z,101791.00
2024-04-22T04:16:17.884Z,101796.28
2024-04-22T04:16:39.836Z,101797.16
2024-04-22T04:17:01.701Z,101803.31
2024-04-22T04:17:23.715Z,101804.22
2024-04-22T04:17:45.610Z,101803.31
2024-04-22T04:18:10.210Z,101789.25
2024-04-22T04:18:31.969Z,101783.09
2024-04-22T04:18:53.946Z,101806.84
2024-04-22T04:19:15.843Z,101799.81
2024-04-22T04:19:37.661Z,101809.47
2024-04-22T04:19:59.496Z,101792.78
2024-04-22T04:20:21.327Z,101798.03
2024-04-22T04:20:43.149Z,101813.84
2024-04-22T04:21:05.339Z,101811.22
2024-04-22T04:21:27.353Z,101815.63
2024-04-22T04:21:51.748Z,101812.09
2024-04-22T04:22:13.490Z,101811.22
2024-04-22T04:22:35.256Z,101805.91
2024-04-22T04:22:57.027Z,101813.84
2024-04-22T04:23:18.816Z,101813.88
2024-04-22T04:23:40.571Z,101812.09
2024-04-22T04:24:02.543Z,101809.44
2024-04-22T04:24:26.957Z,101812.09
2024-04-22T04:24:48.757Z,101806.81
2024-04-22T04:25:13.145Z,101813.84
2024-04-22T04:25:34.908Z,101813.00
2024-04-22T04:25:56.699Z,101812.13
2024-04-22T04:26:18.579Z,101813.00
2024-04-22T04:26:40.468Z,101815.63
2024-04-22T04:27:02.313Z,101813.88
2024-04-22T04:27:24.095Z,101810.34
2024-04-22T04:27:45.855Z,101805.06
2024-04-22T04:28:07.740Z,101805.94
2024-04-22T04:28:29.730Z,101804.19
2024-04-22T04:28:54.166Z,101810.34
2024-04-22T04:29:15.942Z,101819.16
2024-04-22T04:29:37.885Z,101812.09
2024-04-22T04:29:59.652Z,101814.75
2024-04-22T04:30:21.416Z,101816.47
2024-04-22T04:30:43.191Z,101814.72
2024-04-22T04:31:05.062Z,101827.06
2024-04-22T04:31:27.091Z,101816.47
2024-04-22T04:31:49.271Z,101812.94
2024-04-22T04:32:13.757Z,101814.72
2024-04-22T04:32:35.650Z,101813.81
2024-04-22T04:32:57.945Z,101806.78
2024-04-22T04:33:19.859Z,101814.69
2024-04-22T04:33:41.671Z,101808.53
2024-04-22T04:34:03.420Z,101816.44
2024-04-22T04:34:25.227Z,101808.53
2024-04-22T04:34:47.179Z,101814.69
2024-04-22T04:35:11.579Z,101816.50
2024-04-22T04:35:33.351Z,101809.44
2024-04-22T04:35:59.163Z,101815.59
2024-04-22T04:36:21.302Z,101812.94
2024-04-22T04:36:43.128Z,101817.38
2024-04-22T04:37:04.911Z,101803.28